Airfield :







YOU CAN JOIN US ON...

 
LOGIN :

Register | Disclaimer

   EN    FR    IT 

 









Legend :    VFR   Marginal VFR   IFR   Intensive IFR   Very Intensive IFR
Visi :
Ceiling :
>= 8 km
>= 3000ft
5 to 8 km
1000 to 3000 ft
1500m to 5 km
500 to 1000 ft
800 to 1500m
200 to 500 ft
< 800m
< 200 ft
Symbols :   Thunderstorms  Fog  Heavy snow  Heavy precipitations  Wind > 20 kt







- Airport Elevation : 68 ft
- IATA code : YFC


CYFC - Fredericton

CURRENT METAR :
  • 250400Z AUTO 36011KT 9SM BKN018 OVC031 01/M00 A2977 RMK SLP085

EXPIRED METARs :
  • 250347Z AUTO 36008KT 9SM SCT016 BKN022 OVC031 01/M00 A2977 RMK SLP085
  • 250332Z AUTO 35009KT 9SM SCT016 OVC029 01/00 A2977 RMK SLP084
  • 250327Z AUTO 34008G15KT 9SM SCT016 BKN022 OVC027 01/00 A2977 RMK SLP084
  • 250316Z AUTO 35010G16KT 9SM SCT016 OVC027 01/00 A2977 RMK SLP082
  • 250300Z AUTO 35010KT 9SM BKN014 OVC023 01/01 A2977 RMK SLP082
  • 250233Z AUTO 35009KT 9SM BKN013 OVC029 01/01 A2977 RMK SLP083
  • 250226Z AUTO 36009G15KT 9SM SCT013 OVC027 01/01 A2977 RMK SLP083
  • 250203Z AUTO 35008KT 9SM SCT015 BKN023 OVC028 01/01 A2977 RMK SLP085

TAF TAF CYFC
Valid from the 25 at 00:00 until the 25 at 12:00 UTC


242341Z 2500/2512 36010KT 4SM -RA BR BKN008 OVC012
TEMPO 2500/2501 P6SM NSW SCT008 OVC012
FM250100 01010KT 5SM -RASN BR BKN008 OVC015
TEMPO 2501/2503 P6SM NSW SCT015 OVC025
FM250300 36010G20KT 5SM -SN OVC015
TEMPO 2503/2512 P6SM NSW OVC025 RMK FCST BASED ON AUTO OBS. NXT FCST BY 250600Z
CZQM FIR / North America



MET'MAP, your aeronautical weather chart ! - Copyright ORBIFLY December 2007 - Disclaimer

ORBIFLY MET'MAP TEAM :

Programming & Development : Alexandra Zaïnal
Concept & Development : Baudouin d'Aumeries
Co-Development & Prog : Marc-Olivier Méhu
Technical & hardware support : Manuel Goepfert

Contact : metmap@orbifly.com




SOURCES & CREDITS :

   NOAA